createdAt,value
2023-05-23T00:01:25.573Z,14.03
2023-05-23T00:05:03.977Z,14.59
2023-05-23T00:08:24.893Z,14.75
2023-05-23T00:11:48.898Z,14.89
2023-05-23T00:15:12.568Z,15.04
2023-05-23T00:18:33.586Z,15.07
2023-05-23T00:22:10.581Z,14.71
2023-05-23T00:25:37.584Z,14.44
2023-05-23T00:28:57.791Z,14.07
2023-05-23T00:32:10.894Z,14.45
2023-05-23T00:35:18.235Z,14.30
2023-05-23T00:38:24.195Z,14.91
2023-05-23T00:41:31.003Z,14.85
2023-05-23T00:44:39.565Z,14.70
2023-05-23T00:47:48.398Z,14.53
2023-05-23T00:51:08.233Z,15.41
2023-05-23T00:54:37.080Z,16.21
2023-05-23T00:58:01.142Z,15.66
2023-05-23T01:01:26.242Z,15.67
2023-05-23T01:04:56.068Z,15.50
2023-05-23T01:08:19.006Z,15.38
2023-05-23T01:11:43.554Z,14.81
2023-05-23T01:15:18.633Z,14.61
2023-05-23T01:18:42.519Z,14.61
2023-05-23T01:21:58.453Z,14.93
2023-05-23T01:25:26.757Z,14.72
2023-05-23T01:28:43.071Z,15.16
2023-05-23T01:32:09.259Z,15.88
2023-05-23T01:35:31.543Z,14.94
2023-05-23T01:38:52.444Z,15.96
2023-05-23T01:42:13.923Z,15.87
2023-05-23T01:45:38.876Z,15.71
2023-05-23T01:48:49.231Z,16.07
2023-05-23T01:51:55.555Z,16.91
2023-05-23T01:55:04.225Z,15.96
2023-05-23T01:58:11.743Z,14.48
2023-05-23T02:01:21.910Z,15.30
2023-05-23T02:04:27.794Z,15.76
2023-05-23T02:07:36.721Z,15.24
2023-05-23T02:10:57.638Z,15.59
2023-05-23T02:14:18.863Z,15.53
2023-05-23T02:17:43.374Z,15.98
2023-05-23T02:21:04.613Z,16.21
2023-05-23T02:24:25.467Z,16.34
2023-05-23T02:27:46.406Z,16.76
2023-05-23T02:31:09.421Z,16.69
2023-05-23T02:34:33.108Z,19.26
2023-05-23T02:37:53.930Z,20.65
2023-05-23T02:41:15.047Z,18.04
2023-05-23T02:44:36.025Z,16.98
2023-05-23T02:47:57.088Z,17.07
2023-05-23T02:51:07.867Z,16.76
2023-05-23T02:54:13.834Z,17.32
2023-05-23T02:57:20.811Z,16.92
2023-05-23T03:00:26.778Z,16.40
2023-05-23T03:03:36.857Z,16.60
2023-05-23T03:06:45.899Z,17.37
2023-05-23T03:09:52.808Z,18.20
2023-05-23T03:12:58.727Z,19.69
2023-05-23T03:16:05.991Z,20.29
2023-05-23T03:19:12.120Z,19.51
2023-05-23T03:22:21.626Z,19.11
2023-05-23T03:25:27.746Z,18.86
2023-05-23T03:28:35.006Z,19.46
2023-05-23T03:31:41.145Z,19.30
2023-05-23T03:34:48.031Z,19.39
2023-05-23T03:37:56.777Z,20.15
2023-05-23T03:41:03.685Z,19.69
2023-05-23T03:44:10.423Z,19.74
2023-05-23T03:47:17.198Z,19.43
2023-05-23T03:50:26.679Z,19.70
2023-05-23T03:53:36.752Z,20.76
2023-05-23T03:56:43.851Z,20.48
2023-05-23T03:59:50.906Z,20.15
2023-05-23T04:02:57.737Z,19.97
2023-05-23T04:06:05.279Z,19.90
2023-05-23T04:09:14.744Z,19.87
2023-05-23T04:12:24.596Z,20.06
2023-05-23T04:15:48.660Z,19.80
2023-05-23T04:19:10.058Z,20.44
2023-05-23T04:22:31.051Z,20.57
2023-05-23T04:25:54.864Z,20.19
2023-05-23T04:29:19.261Z,20.58
2023-05-23T04:32:40.548Z,20.04
2023-05-23T04:36:01.967Z,19.96
2023-05-23T04:39:26.617Z,20.14
2023-05-23T04:43:09.700Z,20.56
2023-05-23T04:46:42.605Z,20.67
2023-05-23T04:50:25.238Z,20.73
2023-05-23T04:53:46.194Z,20.22
2023-05-23T04:57:07.576Z,20.36
2023-05-23T05:00:31.973Z,19.77
2023-05-23T05:03:55.005Z,20.25
2023-05-23T05:07:16.544Z,21.88
2023-05-23T05:10:44.705Z,22.62
2023-05-23T05:14:19.552Z,22.63
2023-05-23T05:17:43.525Z,21.41
2023-05-23T05:21:08.489Z,21.10
2023-05-23T05:24:32.104Z,21.57
2023-05-23T05:27:53.437Z,22.12
2023-05-23T05:31:05.578Z,19.59
2023-05-23T05:34:17.175Z,19.51
2023-05-23T05:37:25.198Z,19.43
2023-05-23T05:40:31.305Z,19.73
2023-05-23T05:43:38.108Z,19.13
2023-05-23T05:46:44.200Z,19.11
2023-05-23T05:50:10.984Z,19.06
2023-05-23T05:53:32.190Z,18.35
2023-05-23T05:56:53.473Z,18.90
2023-05-23T06:00:19.427Z,17.98
2023-05-23T06:03:40.668Z,19.44
2023-05-23T06:07:04.313Z,18.50
2023-05-23T06:10:13.424Z,18.29
2023-05-23T06:13:19.548Z,17.88
2023-05-23T06:16:31.465Z,17.50
2023-05-23T06:19:39.051Z,17.61
2023-05-23T06:22:48.637Z,17.68
2023-05-23T06:25:56.630Z,18.47
2023-05-23T06:29:17.527Z,17.96
2023-05-23T06:32:38.495Z,17.54
2023-05-23T06:36:00.608Z,18.96
2023-05-23T06:39:28.564Z,19.32
2023-05-23T06:42:49.748Z,18.56
2023-05-23T06:46:19.764Z,16.92
2023-05-23T06:49:26.193Z,19.22
2023-05-23T06:52:32.876Z,22.61
2023-05-23T06:55:42.980Z,25.47
2023-05-23T06:58:53.025Z,22.83
2023-05-23T07:01:59.154Z,22.15
2023-05-23T07:05:07.160Z,22.91
2023-05-23T07:08:39.305Z,32.55
2023-05-23T07:11:53.663Z,29.44
2023-05-23T07:15:00.382Z,22.38
2023-05-23T07:18:09.384Z,23.63
2023-05-23T07:21:15.611Z,25.75
2023-05-23T07:24:23.902Z,20.45
2023-05-23T07:27:36.600Z,18.10
2023-05-23T07:30:45.104Z,17.61
2023-05-23T07:33:55.401Z,17.58
2023-05-23T07:37:10.376Z,17.49
2023-05-23T07:40:21.837Z,16.97
2023-05-23T07:43:31.330Z,17.25
2023-05-23T07:46:37.396Z,17.57
2023-05-23T07:49:44.911Z,16.80
2023-05-23T07:52:52.321Z,16.64
2023-05-23T07:56:05.268Z,16.54
2023-05-23T07:59:18.663Z,16.45
2023-05-23T08:02:29.360Z,13.70
2023-05-23T08:05:36.381Z,13.83
2023-05-23T08:08:44.064Z,14.52
2023-05-23T08:11:50.596Z,13.81
2023-05-23T08:15:01.010Z,15.15
2023-05-23T08:18:19.269Z,14.86
2023-05-23T08:21:27.391Z,14.83
2023-05-23T08:24:34.571Z,14.11
2023-05-23T08:27:45.106Z,12.48
2023-05-23T08:31:13.503Z,13.19
2023-05-23T08:34:20.514Z,13.12
2023-05-23T08:37:27.617Z,14.48
2023-05-23T08:40:54.614Z,14.30
2023-05-23T08:44:17.979Z,14.41
2023-05-23T08:47:50.993Z,14.35
2023-05-23T08:51:20.324Z,15.15
2023-05-23T08:54:29.849Z,15.66
2023-05-23T08:57:37.497Z,14.57
2023-05-23T09:01:00.203Z,13.86
2023-05-23T09:04:16.023Z,14.28
2023-05-23T09:07:37.530Z,14.89
2023-05-23T09:10:44.830Z,13.58
2023-05-23T09:13:53.754Z,13.93
2023-05-23T09:17:22.878Z,12.02
2023-05-23T09:20:36.555Z,12.17
2023-05-23T09:23:48.581Z,11.50
2023-05-23T09:26:56.560Z,11.44
2023-05-23T09:30:18.716Z,12.27
2023-05-23T09:33:27.530Z,13.72
2023-05-23T09:36:37.923Z,12.52
2023-05-23T09:39:51.312Z,13.06
2023-05-23T09:43:12.668Z,12.07
2023-05-23T09:46:19.985Z,11.58
2023-05-23T09:49:26.146Z,11.51
2023-05-23T09:52:41.382Z,11.02
2023-05-23T09:55:47.395Z,12.08
2023-05-23T09:58:57.249Z,12.17
2023-05-23T10:02:09.935Z,11.07
2023-05-23T10:05:36.618Z,11.40
2023-05-23T10:08:52.361Z,11.22
2023-05-23T10:12:47.188Z,11.39
2023-05-23T10:15:54.870Z,10.97
2023-05-23T10:19:12.094Z,10.32
2023-05-23T10:22:26.590Z,10.80
2023-05-23T10:25:38.488Z,10.03
2023-05-23T10:28:46.007Z,10.43
2023-05-23T10:31:54.977Z,9.61
2023-05-23T10:35:11.458Z,9.80
2023-05-23T10:38:39.081Z,9.34
2023-05-23T10:41:59.533Z,9.66
2023-05-23T10:45:21.103Z,9.19
2023-05-23T10:48:45.008Z,9.67
2023-05-23T10:51:54.248Z,9.49
2023-05-23T10:55:00.253Z,9.01
2023-05-23T10:58:20.834Z,8.96
2023-05-23T11:01:27.970Z,9.04
2023-05-23T11:04:35.213Z,9.77
2023-05-23T11:07:41.141Z,9.92
2023-05-23T11:11:04.084Z,10.09
2023-05-23T11:14:12.811Z,10.33
2023-05-23T11:17:35.444Z,10.15
2023-05-23T11:20:42.146Z,9.94
2023-05-23T11:23:49.224Z,10.15
2023-05-23T11:27:11.018Z,9.77
2023-05-23T11:30:24.015Z,10.54
2023-05-23T11:33:42.090Z,9.57
2023-05-23T11:36:55.912Z,10.42
2023-05-23T11:40:09.135Z,9.22
2023-05-23T11:43:36.737Z,9.87
2023-05-23T11:47:03.842Z,9.42
2023-05-23T11:50:12.651Z,9.84
2023-05-23T11:53:22.077Z,9.62
2023-05-23T11:56:29.309Z,10.08
2023-05-23T11:59:35.534Z,10.74
2023-05-23T12:02:50.316Z,10.57
2023-05-23T12:06:14.251Z,10.42
2023-05-23T12:09:35.608Z,10.65
2023-05-23T12:12:57.197Z,10.81
2023-05-23T12:16:20.081Z,10.98
2023-05-23T12:19:48.824Z,11.00
2023-05-23T12:23:10.696Z,11.31
2023-05-23T12:26:18.350Z,11.48
2023-05-23T12:29:34.841Z,11.68
2023-05-23T12:32:46.447Z,11.98
2023-05-23T12:35:56.997Z,12.05
2023-05-23T12:39:07.985Z,12.98
2023-05-23T12:42:15.747Z,13.47
2023-05-23T12:45:25.904Z,13.35
2023-05-23T12:48:56.599Z,12.34
2023-05-23T12:52:06.062Z,12.11
2023-05-23T12:55:13.861Z,11.24
2023-05-23T12:58:20.541Z,11.29
2023-05-23T13:01:26.766Z,11.41
2023-05-23T13:04:33.639Z,11.41
2023-05-23T13:07:59.776Z,11.11
2023-05-23T13:11:07.309Z,11.68
2023-05-23T13:14:16.462Z,11.84
2023-05-23T13:17:23.535Z,11.92
2023-05-23T13:20:30.999Z,10.99
2023-05-23T13:23:41.188Z,10.85
2023-05-23T13:26:47.347Z,9.62
2023-05-23T13:29:54.243Z,9.21
2023-05-23T13:33:00.534Z,8.37
2023-05-23T13:36:10.095Z,8.59
2023-05-23T13:39:19.919Z,7.74
2023-05-23T13:42:27.370Z,7.75
2023-05-23T13:45:34.346Z,7.53
2023-05-23T13:48:41.262Z,7.24
2023-05-23T13:51:47.400Z,7.21
2023-05-23T13:55:12.381Z,7.05
2023-05-23T13:58:33.421Z,6.22
2023-05-23T14:01:40.260Z,6.00
2023-05-23T14:04:46.337Z,5.39
2023-05-23T14:07:55.281Z,5.27
2023-05-23T14:11:05.677Z,4.91
2023-05-23T14:14:12.879Z,4.61
2023-05-23T14:17:19.270Z,4.84
2023-05-23T14:20:26.715Z,4.73
2023-05-23T14:23:32.814Z,5.44
2023-05-23T14:26:42.360Z,5.74
2023-05-23T14:29:49.274Z,5.99
2023-05-23T14:32:56.239Z,5.51
2023-05-23T14:36:05.150Z,5.67
2023-05-23T14:39:11.989Z,6.07
2023-05-23T14:42:20.531Z,5.71
2023-05-23T14:45:27.747Z,6.28
2023-05-23T14:48:33.906Z,6.22
2023-05-23T14:51:47.526Z,6.24
2023-05-23T14:55:04.133Z,6.85
2023-05-23T14:58:28.094Z,8.00
2023-05-23T15:01:37.284Z,8.16
2023-05-23T15:04:45.055Z,8.97
2023-05-23T15:07:52.208Z,8.97
2023-05-23T15:11:01.281Z,9.50
2023-05-23T15:14:32.493Z,10.25
2023-05-23T15:17:39.233Z,9.78
2023-05-23T15:20:46.578Z,10.31
2023-05-23T15:23:52.572Z,10.21
2023-05-23T15:27:19.441Z,10.64
2023-05-23T15:30:29.460Z,10.75
2023-05-23T15:33:36.323Z,11.31
2023-05-23T15:36:57.250Z,10.98
2023-05-23T15:40:04.416Z,10.95
2023-05-23T15:43:10.356Z,10.85
2023-05-23T15:46:19.824Z,10.81
2023-05-23T15:49:27.261Z,10.63
2023-05-23T15:52:35.007Z,10.12
2023-05-23T15:55:45.260Z,9.69
2023-05-23T15:58:52.320Z,10.25
2023-05-23T16:02:03.377Z,9.80
2023-05-23T16:05:11.407Z,10.52
2023-05-23T16:08:17.448Z,10.41
2023-05-23T16:11:26.711Z,10.61
2023-05-23T16:14:49.267Z,11.22
2023-05-23T16:18:21.223Z,11.36
2023-05-23T16:21:51.601Z,10.17
2023-05-23T16:25:14.324Z,10.57
2023-05-23T16:28:35.508Z,9.80
2023-05-23T16:31:56.498Z,10.77
2023-05-23T16:35:20.250Z,10.63
2023-05-23T16:38:41.257Z,10.98
2023-05-23T16:42:02.379Z,12.48
2023-05-23T16:45:23.603Z,13.83
2023-05-23T16:48:44.607Z,14.01
2023-05-23T16:51:54.789Z,13.99
2023-05-23T16:55:01.784Z,14.89
2023-05-23T16:58:17.002Z,13.95
2023-05-23T17:01:27.910Z,14.02
2023-05-23T17:04:35.396Z,13.78
2023-05-23T17:07:44.148Z,12.26
2023-05-23T17:11:06.419Z,15.15
2023-05-23T17:14:27.753Z,15.84
2023-05-23T17:17:49.263Z,12.68
2023-05-23T17:21:10.251Z,11.46
2023-05-23T17:24:33.907Z,12.05
2023-05-23T17:27:56.180Z,12.29
2023-05-23T17:31:28.929Z,12.87
2023-05-23T17:34:51.654Z,12.69
2023-05-23T17:38:14.674Z,12.84
2023-05-23T17:41:38.329Z,12.16
2023-05-23T17:44:46.621Z,11.85
2023-05-23T17:47:53.583Z,12.68
2023-05-23T17:51:00.545Z,12.23
2023-05-23T17:54:07.376Z,12.80
2023-05-23T17:57:19.990Z,31.04
2023-05-23T18:00:26.251Z,12.46
2023-05-23T18:03:42.778Z,11.81
2023-05-23T18:07:05.092Z,11.29
2023-05-23T18:10:26.211Z,11.55
2023-05-23T18:13:49.753Z,11.59
2023-05-23T18:17:13.216Z,12.07
2023-05-23T18:20:34.272Z,12.16
2023-05-23T18:23:55.125Z,13.13
2023-05-23T18:27:16.270Z,13.44
2023-05-23T18:30:40.139Z,13.99
2023-05-23T18:34:04.840Z,15.17
2023-05-23T18:37:25.842Z,15.65
2023-05-23T18:40:47.338Z,15.85
2023-05-23T18:44:08.227Z,15.17
2023-05-23T18:47:32.287Z,15.03
2023-05-23T18:50:53.260Z,15.75
2023-05-23T18:54:14.138Z,15.14
2023-05-23T18:57:35.176Z,16.40
2023-05-23T19:00:56.059Z,17.92
2023-05-23T19:04:22.509Z,17.71
2023-05-23T19:07:43.702Z,18.16
2023-05-23T19:10:51.264Z,18.00
2023-05-23T19:13:57.508Z,17.87
2023-05-23T19:17:07.777Z,18.29
2023-05-23T19:20:20.364Z,18.78
2023-05-23T19:23:28.399Z,18.22
2023-05-23T19:26:34.592Z,18.98
2023-05-23T19:29:42.667Z,18.60
2023-05-23T19:33:10.307Z,19.46
2023-05-23T19:36:36.956Z,19.09
2023-05-23T19:40:01.033Z,18.53
2023-05-23T19:43:22.087Z,18.82
2023-05-23T19:46:43.166Z,18.91
2023-05-23T19:50:04.198Z,17.83
2023-05-23T19:53:27.730Z,17.85
2023-05-23T19:56:36.212Z,17.75
2023-05-23T19:59:42.570Z,19.23
2023-05-23T20:02:49.401Z,19.63
2023-05-23T20:05:55.366Z,19.27
2023-05-23T20:09:04.823Z,19.70
2023-05-23T20:12:11.939Z,19.35
2023-05-23T20:15:27.654Z,20.11
2023-05-23T20:18:48.065Z,19.94
2023-05-23T20:22:09.276Z,20.18
2023-05-23T20:25:34.062Z,20.22
2023-05-23T20:28:55.119Z,19.47
2023-05-23T20:32:20.779Z,19.83
2023-05-23T20:35:48.534Z,18.79
2023-05-23T20:39:09.542Z,19.41
2023-05-23T20:42:36.667Z,19.54
2023-05-23T20:45:58.211Z,20.37
2023-05-23T20:49:19.417Z,20.65
2023-05-23T20:52:43.187Z,20.57
2023-05-23T20:56:10.502Z,20.17
2023-05-23T20:59:34.178Z,20.03
2023-05-23T21:02:55.226Z,20.68
2023-05-23T21:06:16.535Z,20.03
2023-05-23T21:09:37.696Z,19.90
2023-05-23T21:13:07.959Z,19.14
2023-05-23T21:16:33.318Z,18.37
2023-05-23T21:19:54.600Z,17.91
2023-05-23T21:23:01.567Z,17.41
2023-05-23T21:26:10.935Z,16.54
2023-05-23T21:29:17.774Z,16.25
2023-05-23T21:32:26.522Z,15.52
2023-05-23T21:35:33.303Z,15.66
2023-05-23T21:38:40.865Z,15.41
2023-05-23T21:42:01.877Z,14.90
2023-05-23T21:45:22.902Z,15.21
2023-05-23T21:48:55.332Z,15.41
2023-05-23T21:52:16.319Z,15.43
2023-05-23T21:55:37.246Z,15.09
2023-05-23T21:58:58.126Z,15.53
2023-05-23T22:02:20.419Z,15.65
2023-05-23T22:05:43.921Z,15.71
2023-05-23T22:09:10.442Z,15.11
2023-05-23T22:12:31.345Z,15.52
2023-05-23T22:15:52.433Z,15.63
2023-05-23T22:19:18.326Z,15.96
2023-05-23T22:22:41.893Z,16.29
2023-05-23T22:26:09.326Z,16.63
2023-05-23T22:29:37.121Z,16.91
2023-05-23T22:33:05.360Z,16.46
2023-05-23T22:36:31.576Z,16.94
2023-05-23T22:39:55.110Z,16.98
2023-05-23T22:43:16.918Z,17.05
2023-05-23T22:46:39.841Z,17.43
2023-05-23T22:50:01.094Z,17.26
2023-05-23T22:53:22.850Z,17.76
2023-05-23T22:56:46.444Z,17.88
2023-05-23T23:00:12.270Z,17.26
2023-05-23T23:03:33.357Z,17.39
2023-05-23T23:06:55.092Z,17.96
2023-05-23T23:10:16.204Z,17.60
2023-05-23T23:13:39.933Z,17.71
2023-05-23T23:17:01.203Z,17.53
2023-05-23T23:20:22.933Z,18.37
2023-05-23T23:23:44.010Z,18.34
2023-05-23T23:27:04.957Z,18.92
2023-05-23T23:30:29.376Z,19.04
2023-05-23T23:33:51.024Z,20.13
2023-05-23T23:37:11.947Z,20.35
2023-05-23T23:40:33.051Z,20.08
2023-05-23T23:43:56.327Z,21.49
2023-05-23T23:47:20.115Z,22.71
2023-05-23T23:50:27.710Z,22.53
2023-05-23T23:53:33.960Z,22.48
2023-05-23T23:56:40.806Z,23.53
2023-05-23T23:59:49.299Z,23.83
